sensor_id;sensor_type;location;lat;lon;timestamp;P1;durP1;ratioP1;P2;durP2;ratioP2
65373;SDS011;52070;53.760;9.678;2023-03-09T00:01:20;11.82;;;6.28;;
65373;SDS011;52070;53.760;9.678;2023-03-09T00:03:48;12.20;;;6.30;;
65373;SDS011;52070;53.760;9.678;2023-03-09T00:06:15;11.38;;;6.32;;
65373;SDS011;52070;53.760;9.678;2023-03-09T00:08:43;11.80;;;6.15;;
65373;SDS011;52070;53.760;9.678;2023-03-09T00:11:12;12.48;;;6.15;;
65373;SDS011;52070;53.760;9.678;2023-03-09T00:13:39;10.00;;;5.90;;
65373;SDS011;52070;53.760;9.678;2023-03-09T00:16:07;12.55;;;6.50;;
65373;SDS011;52070;53.760;9.678;2023-03-09T00:18:35;10.80;;;6.53;;
65373;SDS011;52070;53.760;9.678;2023-03-09T00:21:02;10.88;;;6.07;;
65373;SDS011;52070;53.760;9.678;2023-03-09T00:23:30;12.00;;;6.00;;
65373;SDS011;52070;53.760;9.678;2023-03-09T00:26:00;10.90;;;5.70;;
65373;SDS011;52070;53.760;9.678;2023-03-09T00:28:30;13.10;;;5.60;;
65373;SDS011;52070;53.760;9.678;2023-03-09T00:31:00;11.65;;;6.30;;
65373;SDS011;52070;53.760;9.678;2023-03-09T00:33:28;11.65;;;5.45;;
65373;SDS011;52070;53.760;9.678;2023-03-09T00:35:55;10.27;;;5.80;;
65373;SDS011;52070;53.760;9.678;2023-03-09T00:38:22;10.57;;;5.78;;
65373;SDS011;52070;53.760;9.678;2023-03-09T00:40:49;10.02;;;5.65;;
65373;SDS011;52070;53.760;9.678;2023-03-09T00:43:17;13.43;;;6.53;;
65373;SDS011;52070;53.760;9.678;2023-03-09T00:45:45;10.32;;;5.93;;
65373;SDS011;52070;53.760;9.678;2023-03-09T00:48:12;9.95;;;5.35;;
65373;SDS011;52070;53.760;9.678;2023-03-09T00:50:39;10.07;;;5.50;;
65373;SDS011;52070;53.760;9.678;2023-03-09T00:53:06;14.45;;;5.97;;
65373;SDS011;52070;53.760;9.678;2023-03-09T00:55:33;8.65;;;5.22;;
65373;SDS011;52070;53.760;9.678;2023-03-09T00:58:00;9.63;;;5.35;;
65373;SDS011;52070;53.760;9.678;2023-03-09T01:00:27;12.93;;;6.22;;
65373;SDS011;52070;53.760;9.678;2023-03-09T01:02:55;12.70;;;6.22;;
65373;SDS011;52070;53.760;9.678;2023-03-09T01:05:22;11.43;;;5.60;;
65373;SDS011;52070;53.760;9.678;2023-03-09T01:07:49;11.18;;;5.55;;
65373;SDS011;52070;53.760;9.678;2023-03-09T01:10:16;12.00;;;5.82;;
65373;SDS011;52070;53.760;9.678;2023-03-09T01:12:43;9.45;;;5.55;;
65373;SDS011;52070;53.760;9.678;2023-03-09T01:15:10;13.20;;;5.90;;
65373;SDS011;52070;53.760;9.678;2023-03-09T01:17:38;8.95;;;5.28;;
65373;SDS011;52070;53.760;9.678;2023-03-09T01:20:07;14.27;;;5.75;;
65373;SDS011;52070;53.760;9.678;2023-03-09T01:22:35;11.10;;;5.68;;
65373;SDS011;52070;53.760;9.678;2023-03-09T01:25:03;10.77;;;5.18;;
65373;SDS011;52070;53.760;9.678;2023-03-09T01:27:30;9.25;;;5.05;;
65373;SDS011;52070;53.760;9.678;2023-03-09T01:29:57;10.18;;;5.40;;
65373;SDS011;52070;53.760;9.678;2023-03-09T01:32:24;10.00;;;5.20;;
65373;SDS011;52070;53.760;9.678;2023-03-09T01:34:54;11.20;;;5.40;;
65373;SDS011;52070;53.760;9.678;2023-03-09T01:37:22;10.30;;;5.80;;
65373;SDS011;52070;53.760;9.678;2023-03-09T01:39:49;8.15;;;5.07;;
65373;SDS011;52070;53.760;9.678;2023-03-09T01:42:16;9.90;;;5.55;;
65373;SDS011;52070;53.760;9.678;2023-03-09T01:44:43;7.93;;;4.60;;
65373;SDS011;52070;53.760;9.678;2023-03-09T01:47:10;10.35;;;5.20;;
65373;SDS011;52070;53.760;9.678;2023-03-09T01:49:38;11.30;;;5.43;;
65373;SDS011;52070;53.760;9.678;2023-03-09T01:54:41;9.23;;;4.85;;
65373;SDS011;52070;53.760;9.678;2023-03-09T01:57:15;13.35;;;5.78;;
65373;SDS011;52070;53.760;9.678;2023-03-09T01:59:48;9.45;;;5.60;;
65373;SDS011;52070;53.760;9.678;2023-03-09T02:02:17;10.73;;;6.00;;
65373;SDS011;52070;53.760;9.678;2023-03-09T02:04:45;10.73;;;5.57;;
65373;SDS011;52070;53.760;9.678;2023-03-09T02:07:14;9.77;;;5.40;;
65373;SDS011;52070;53.760;9.678;2023-03-09T02:09:46;9.82;;;5.80;;
65373;SDS011;52070;53.760;9.678;2023-03-09T02:12:17;10.98;;;5.72;;
65373;SDS011;52070;53.760;9.678;2023-03-09T02:14:46;11.50;;;5.28;;
65373;SDS011;52070;53.760;9.678;2023-03-09T02:17:13;12.18;;;6.35;;
65373;SDS011;52070;53.760;9.678;2023-03-09T02:19:53;10.32;;;5.75;;
65373;SDS011;52070;53.760;9.678;2023-03-09T02:22:30;13.48;;;5.85;;
65373;SDS011;52070;53.760;9.678;2023-03-09T02:25:01;10.57;;;5.72;;
65373;SDS011;52070;53.760;9.678;2023-03-09T02:27:35;10.10;;;5.85;;
65373;SDS011;52070;53.760;9.678;2023-03-09T02:30:02;11.85;;;6.18;;
65373;SDS011;52070;53.760;9.678;2023-03-09T02:32:30;8.60;;;5.60;;
65373;SDS011;52070;53.760;9.678;2023-03-09T02:34:57;10.40;;;6.38;;
65373;SDS011;52070;53.760;9.678;2023-03-09T02:37:26;11.00;;;5.82;;
65373;SDS011;52070;53.760;9.678;2023-03-09T02:39:57;13.50;;;6.47;;
65373;SDS011;52070;53.760;9.678;2023-03-09T02:42:26;11.68;;;5.93;;
65373;SDS011;52070;53.760;9.678;2023-03-09T02:44:55;11.10;;;5.68;;
65373;SDS011;52070;53.760;9.678;2023-03-09T02:47:23;11.55;;;5.95;;
65373;SDS011;52070;53.760;9.678;2023-03-09T02:49:50;10.70;;;6.03;;
65373;SDS011;52070;53.760;9.678;2023-03-09T02:52:17;10.18;;;5.68;;
65373;SDS011;52070;53.760;9.678;2023-03-09T02:54:44;11.18;;;5.43;;
65373;SDS011;52070;53.760;9.678;2023-03-09T02:57:11;9.88;;;5.90;;
65373;SDS011;52070;53.760;9.678;2023-03-09T02:59:38;12.85;;;5.80;;
65373;SDS011;52070;53.760;9.678;2023-03-09T03:02:07;10.93;;;5.45;;
65373;SDS011;52070;53.760;9.678;2023-03-09T03:04:34;13.88;;;5.55;;
65373;SDS011;52070;53.760;9.678;2023-03-09T03:07:02;9.55;;;5.90;;
65373;SDS011;52070;53.760;9.678;2023-03-09T03:09:29;11.38;;;5.35;;
65373;SDS011;52070;53.760;9.678;2023-03-09T03:11:56;11.65;;;6.20;;
65373;SDS011;52070;53.760;9.678;2023-03-09T03:14:23;9.55;;;5.43;;
65373;SDS011;52070;53.760;9.678;2023-03-09T03:16:50;11.75;;;5.45;;
65373;SDS011;52070;53.760;9.678;2023-03-09T03:19:18;10.90;;;5.38;;
65373;SDS011;52070;53.760;9.678;2023-03-09T03:21:45;11.25;;;5.65;;
65373;SDS011;52070;53.760;9.678;2023-03-09T03:24:13;15.27;;;5.78;;
65373;SDS011;52070;53.760;9.678;2023-03-09T03:26:41;14.32;;;5.90;;
65373;SDS011;52070;53.760;9.678;2023-03-09T03:29:08;8.60;;;5.13;;
65373;SDS011;52070;53.760;9.678;2023-03-09T03:31:35;10.57;;;5.43;;
65373;SDS011;52070;53.760;9.678;2023-03-09T03:34:02;11.00;;;5.07;;
65373;SDS011;52070;53.760;9.678;2023-03-09T03:36:30;10.10;;;4.85;;
65373;SDS011;52070;53.760;9.678;2023-03-09T03:38:57;9.90;;;5.00;;
65373;SDS011;52070;53.760;9.678;2023-03-09T03:41:24;9.75;;;5.47;;
65373;SDS011;52070;53.760;9.678;2023-03-09T03:43:51;9.65;;;5.03;;
65373;SDS011;52070;53.760;9.678;2023-03-09T03:46:18;12.10;;;5.78;;
65373;SDS011;52070;53.760;9.678;2023-03-09T03:48:45;9.73;;;5.57;;
65373;SDS011;52070;53.760;9.678;2023-03-09T03:51:12;8.10;;;5.25;;
65373;SDS011;52070;53.760;9.678;2023-03-09T03:53:41;11.52;;;5.38;;
65373;SDS011;52070;53.760;9.678;2023-03-09T03:56:09;10.00;;;5.65;;
65373;SDS011;52070;53.760;9.678;2023-03-09T03:58:36;9.70;;;5.63;;
65373;SDS011;52070;53.760;9.678;2023-03-09T04:01:03;11.55;;;5.07;;
65373;SDS011;52070;53.760;9.678;2023-03-09T04:03:30;11.10;;;5.05;;
65373;SDS011;52070;53.760;9.678;2023-03-09T04:05:57;8.88;;;5.20;;
65373;SDS011;52070;53.760;9.678;2023-03-09T04:08:24;8.65;;;5.22;;
65373;SDS011;52070;53.760;9.678;2023-03-09T04:10:53;10.00;;;4.78;;
65373;SDS011;52070;53.760;9.678;2023-03-09T04:13:20;11.65;;;5.28;;
65373;SDS011;52070;53.760;9.678;2023-03-09T04:15:46;13.60;;;5.20;;
65373;SDS011;52070;53.760;9.678;2023-03-09T04:18:14;8.25;;;4.88;;
65373;SDS011;52070;53.760;9.678;2023-03-09T04:20:41;7.65;;;5.05;;
65373;SDS011;52070;53.760;9.678;2023-03-09T04:23:10;9.68;;;4.30;;
65373;SDS011;52070;53.760;9.678;2023-03-09T04:25:37;9.48;;;5.07;;
65373;SDS011;52070;53.760;9.678;2023-03-09T04:28:05;9.63;;;4.97;;
65373;SDS011;52070;53.760;9.678;2023-03-09T04:30:32;10.48;;;4.80;;
65373;SDS011;52070;53.760;9.678;2023-03-09T04:32:59;10.98;;;5.03;;
65373;SDS011;52070;53.760;9.678;2023-03-09T04:35:26;14.60;;;5.28;;
65373;SDS011;52070;53.760;9.678;2023-03-09T04:37:53;10.50;;;5.05;;
65373;SDS011;52070;53.760;9.678;2023-03-09T04:40:20;8.13;;;5.20;;
65373;SDS011;52070;53.760;9.678;2023-03-09T04:42:47;9.52;;;4.97;;
65373;SDS011;52070;53.760;9.678;2023-03-09T04:45:15;7.60;;;4.75;;
65373;SDS011;52070;53.760;9.678;2023-03-09T04:47:42;9.73;;;4.82;;
65373;SDS011;52070;53.760;9.678;2023-03-09T04:50:09;11.45;;;5.15;;
65373;SDS011;52070;53.760;9.678;2023-03-09T04:52:37;9.25;;;5.13;;
65373;SDS011;52070;53.760;9.678;2023-03-09T04:55:04;9.27;;;5.13;;
65373;SDS011;52070;53.760;9.678;2023-03-09T04:57:32;10.98;;;5.00;;
65373;SDS011;52070;53.760;9.678;2023-03-09T04:59:59;10.82;;;5.13;;
65373;SDS011;52070;53.760;9.678;2023-03-09T05:02:27;10.52;;;4.85;;
65373;SDS011;52070;53.760;9.678;2023-03-09T05:04:55;9.10;;;5.03;;
65373;SDS011;52070;53.760;9.678;2023-03-09T05:07:21;8.23;;;5.15;;
65373;SDS011;52070;53.760;9.678;2023-03-09T05:09:49;8.98;;;5.03;;
65373;SDS011;52070;53.760;9.678;2023-03-09T05:12:15;8.63;;;4.97;;
65373;SDS011;52070;53.760;9.678;2023-03-09T05:14:42;12.48;;;5.40;;
65373;SDS011;52070;53.760;9.678;2023-03-09T05:17:09;9.07;;;5.05;;
65373;SDS011;52070;53.760;9.678;2023-03-09T05:19:38;9.68;;;5.45;;
65373;SDS011;52070;53.760;9.678;2023-03-09T05:22:05;9.27;;;5.40;;
65373;SDS011;52070;53.760;9.678;2023-03-09T05:24:32;8.45;;;5.10;;
65373;SDS011;52070;53.760;9.678;2023-03-09T05:26:59;8.38;;;5.07;;
65373;SDS011;52070;53.760;9.678;2023-03-09T05:29:26;11.43;;;5.05;;
65373;SDS011;52070;53.760;9.678;2023-03-09T05:31:53;10.40;;;5.53;;
65373;SDS011;52070;53.760;9.678;2023-03-09T05:34:20;13.10;;;5.72;;
65373;SDS011;52070;53.760;9.678;2023-03-09T05:36:49;10.45;;;5.72;;
65373;SDS011;52070;53.760;9.678;2023-03-09T05:39:16;11.82;;;5.65;;
65373;SDS011;52070;53.760;9.678;2023-03-09T05:41:43;11.32;;;5.50;;
65373;SDS011;52070;53.760;9.678;2023-03-09T05:44:10;12.02;;;5.70;;
65373;SDS011;52070;53.760;9.678;2023-03-09T05:46:37;10.52;;;5.22;;
65373;SDS011;52070;53.760;9.678;2023-03-09T05:49:04;11.85;;;5.80;;
65373;SDS011;52070;53.760;9.678;2023-03-09T05:51:31;10.00;;;5.47;;
65373;SDS011;52070;53.760;9.678;2023-03-09T05:53:59;12.23;;;5.97;;
65373;SDS011;52070;53.760;9.678;2023-03-09T05:56:26;11.55;;;5.70;;
65373;SDS011;52070;53.760;9.678;2023-03-09T05:58:53;11.23;;;5.43;;
65373;SDS011;52070;53.760;9.678;2023-03-09T06:01:22;12.13;;;6.35;;
65373;SDS011;52070;53.760;9.678;2023-03-09T06:03:51;10.50;;;5.70;;
65373;SDS011;52070;53.760;9.678;2023-03-09T06:06:18;11.80;;;6.50;;
65373;SDS011;52070;53.760;9.678;2023-03-09T06:08:46;11.02;;;6.10;;
65373;SDS011;52070;53.760;9.678;2023-03-09T06:11:15;10.00;;;6.50;;
65373;SDS011;52070;53.760;9.678;2023-03-09T06:13:42;11.23;;;6.10;;
65373;SDS011;52070;53.760;9.678;2023-03-09T06:16:10;11.88;;;6.30;;
65373;SDS011;52070;53.760;9.678;2023-03-09T06:18:39;11.38;;;6.90;;
65373;SDS011;52070;53.760;9.678;2023-03-09T06:21:06;14.45;;;6.95;;
65373;SDS011;52070;53.760;9.678;2023-03-09T06:23:33;12.18;;;6.45;;
65373;SDS011;52070;53.760;9.678;2023-03-09T06:26:02;12.63;;;6.72;;
65373;SDS011;52070;53.760;9.678;2023-03-09T06:28:31;12.18;;;6.88;;
65373;SDS011;52070;53.760;9.678;2023-03-09T06:30:58;12.00;;;5.85;;
65373;SDS011;52070;53.760;9.678;2023-03-09T06:33:25;9.68;;;6.20;;
65373;SDS011;52070;53.760;9.678;2023-03-09T06:35:52;13.85;;;6.90;;
65373;SDS011;52070;53.760;9.678;2023-03-09T06:38:19;15.68;;;6.68;;
65373;SDS011;52070;53.760;9.678;2023-03-09T06:40:46;10.82;;;6.55;;
65373;SDS011;52070;53.760;9.678;2023-03-09T06:43:14;13.18;;;6.25;;
65373;SDS011;52070;53.760;9.678;2023-03-09T06:45:45;11.45;;;6.70;;
65373;SDS011;52070;53.760;9.678;2023-03-09T06:48:12;12.20;;;6.68;;
65373;SDS011;52070;53.760;9.678;2023-03-09T06:50:39;11.52;;;6.53;;
65373;SDS011;52070;53.760;9.678;2023-03-09T06:53:06;12.13;;;6.40;;
65373;SDS011;52070;53.760;9.678;2023-03-09T06:55:33;12.07;;;5.90;;
65373;SDS011;52070;53.760;9.678;2023-03-09T06:58:02;13.20;;;6.50;;
65373;SDS011;52070;53.760;9.678;2023-03-09T07:00:29;12.45;;;6.75;;
65373;SDS011;52070;53.760;9.678;2023-03-09T07:02:57;13.13;;;6.10;;
65373;SDS011;52070;53.760;9.678;2023-03-09T07:05:24;16.55;;;6.53;;
65373;SDS011;52070;53.760;9.678;2023-03-09T07:07:52;16.50;;;6.80;;
65373;SDS011;52070;53.760;9.678;2023-03-09T07:10:19;11.80;;;6.45;;
65373;SDS011;52070;53.760;9.678;2023-03-09T07:12:47;12.52;;;6.90;;
65373;SDS011;52070;53.760;9.678;2023-03-09T07:15:14;13.80;;;6.57;;
65373;SDS011;52070;53.760;9.678;2023-03-09T07:17:42;14.90;;;6.57;;
65373;SDS011;52070;53.760;9.678;2023-03-09T07:20:10;11.38;;;6.38;;
65373;SDS011;52070;53.760;9.678;2023-03-09T07:22:38;15.93;;;7.60;;
65373;SDS011;52070;53.760;9.678;2023-03-09T07:25:05;13.48;;;6.80;;
65373;SDS011;52070;53.760;9.678;2023-03-09T07:27:33;16.45;;;7.13;;
65373;SDS011;52070;53.760;9.678;2023-03-09T07:30:00;10.38;;;6.32;;
65373;SDS011;52070;53.760;9.678;2023-03-09T07:32:27;12.30;;;6.60;;
65373;SDS011;52070;53.760;9.678;2023-03-09T07:34:54;12.75;;;6.45;;
65373;SDS011;52070;53.760;9.678;2023-03-09T07:37:22;14.10;;;6.95;;
65373;SDS011;52070;53.760;9.678;2023-03-09T07:39:50;13.48;;;6.80;;
65373;SDS011;52070;53.760;9.678;2023-03-09T07:42:17;15.60;;;6.85;;
65373;SDS011;52070;53.760;9.678;2023-03-09T07:44:44;11.85;;;6.53;;
65373;SDS011;52070;53.760;9.678;2023-03-09T07:47:11;13.05;;;7.03;;
65373;SDS011;52070;53.760;9.678;2023-03-09T07:49:38;14.50;;;6.97;;
65373;SDS011;52070;53.760;9.678;2023-03-09T07:52:06;11.55;;;6.60;;
65373;SDS011;52070;53.760;9.678;2023-03-09T07:54:34;12.30;;;7.28;;
65373;SDS011;52070;53.760;9.678;2023-03-09T07:57:02;13.95;;;6.78;;
65373;SDS011;52070;53.760;9.678;2023-03-09T07:59:29;15.88;;;6.93;;
65373;SDS011;52070;53.760;9.678;2023-03-09T08:01:56;12.30;;;7.05;;
65373;SDS011;52070;53.760;9.678;2023-03-09T08:04:23;15.82;;;7.53;;
65373;SDS011;52070;53.760;9.678;2023-03-09T08:06:51;14.57;;;7.30;;
65373;SDS011;52070;53.760;9.678;2023-03-09T08:09:18;15.02;;;7.20;;
65373;SDS011;52070;53.760;9.678;2023-03-09T08:11:47;16.05;;;7.90;;
65373;SDS011;52070;53.760;9.678;2023-03-09T08:14:14;16.77;;;7.55;;
65373;SDS011;52070;53.760;9.678;2023-03-09T08:16:41;14.27;;;7.63;;
65373;SDS011;52070;53.760;9.678;2023-03-09T08:19:08;13.00;;;7.13;;
65373;SDS011;52070;53.760;9.678;2023-03-09T08:21:36;15.63;;;7.22;;
65373;SDS011;52070;53.760;9.678;2023-03-09T08:24:03;14.30;;;7.38;;
65373;SDS011;52070;53.760;9.678;2023-03-09T08:26:31;14.73;;;7.20;;
65373;SDS011;52070;53.760;9.678;2023-03-09T08:28:59;13.18;;;7.25;;
65373;SDS011;52070;53.760;9.678;2023-03-09T08:31:26;14.95;;;7.63;;
65373;SDS011;52070;53.760;9.678;2023-03-09T08:33:53;15.75;;;6.93;;
65373;SDS011;52070;53.760;9.678;2023-03-09T08:36:20;15.45;;;7.18;;
65373;SDS011;52070;53.760;9.678;2023-03-09T08:38:48;13.02;;;7.22;;
65373;SDS011;52070;53.760;9.678;2023-03-09T08:41:17;13.93;;;6.43;;
65373;SDS011;52070;53.760;9.678;2023-03-09T08:43:45;15.13;;;7.22;;
65373;SDS011;52070;53.760;9.678;2023-03-09T08:46:14;14.95;;;7.15;;
65373;SDS011;52070;53.760;9.678;2023-03-09T08:48:41;15.95;;;7.55;;
65373;SDS011;52070;53.760;9.678;2023-03-09T08:51:09;15.23;;;7.78;;
65373;SDS011;52070;53.760;9.678;2023-03-09T08:53:37;14.77;;;6.97;;
65373;SDS011;52070;53.760;9.678;2023-03-09T08:56:04;17.52;;;7.20;;
65373;SDS011;52070;53.760;9.678;2023-03-09T08:58:32;13.45;;;7.25;;
65373;SDS011;52070;53.760;9.678;2023-03-09T09:00:59;14.98;;;7.05;;
65373;SDS011;52070;53.760;9.678;2023-03-09T09:03:28;14.50;;;7.40;;
65373;SDS011;52070;53.760;9.678;2023-03-09T09:05:55;18.25;;;7.70;;
65373;SDS011;52070;53.760;9.678;2023-03-09T09:08:23;13.88;;;7.10;;
65373;SDS011;52070;53.760;9.678;2023-03-09T09:10:51;10.93;;;6.65;;
65373;SDS011;52070;53.760;9.678;2023-03-09T09:13:18;11.85;;;6.70;;
65373;SDS011;52070;53.760;9.678;2023-03-09T09:15:45;13.45;;;6.90;;
65373;SDS011;52070;53.760;9.678;2023-03-09T09:18:18;15.40;;;6.22;;
65373;SDS011;52070;53.760;9.678;2023-03-09T09:20:46;11.75;;;6.95;;
65373;SDS011;52070;53.760;9.678;2023-03-09T09:23:14;9.80;;;6.20;;
65373;SDS011;52070;53.760;9.678;2023-03-09T09:25:41;13.15;;;6.82;;
65373;SDS011;52070;53.760;9.678;2023-03-09T09:28:08;13.07;;;6.05;;
65373;SDS011;52070;53.760;9.678;2023-03-09T09:30:35;13.05;;;6.15;;
65373;SDS011;52070;53.760;9.678;2023-03-09T09:33:02;18.40;;;6.15;;
65373;SDS011;52070;53.760;9.678;2023-03-09T09:35:30;11.65;;;5.95;;
65373;SDS011;52070;53.760;9.678;2023-03-09T09:37:58;12.23;;;5.97;;
65373;SDS011;52070;53.760;9.678;2023-03-09T09:40:26;10.90;;;6.07;;
65373;SDS011;52070;53.760;9.678;2023-03-09T09:42:53;13.77;;;6.43;;
65373;SDS011;52070;53.760;9.678;2023-03-09T09:45:29;11.40;;;6.30;;
65373;SDS011;52070;53.760;9.678;2023-03-09T09:47:59;11.80;;;5.95;;
65373;SDS011;52070;53.760;9.678;2023-03-09T09:50:31;13.00;;;5.80;;
65373;SDS011;52070;53.760;9.678;2023-03-09T09:53:14;9.95;;;5.38;;
65373;SDS011;52070;53.760;9.678;2023-03-09T09:55:51;7.75;;;5.05;;
65373;SDS011;52070;53.760;9.678;2023-03-09T09:58:23;11.60;;;5.45;;
65373;SDS011;52070;53.760;9.678;2023-03-09T10:00:57;11.27;;;5.75;;
65373;SDS011;52070;53.760;9.678;2023-03-09T10:03:28;9.05;;;4.88;;
65373;SDS011;52070;53.760;9.678;2023-03-09T10:08:33;10.68;;;5.45;;
65373;SDS011;52070;53.760;9.678;2023-03-09T10:11:04;11.32;;;5.40;;
65373;SDS011;52070;53.760;9.678;2023-03-09T10:13:40;6.70;;;4.72;;
65373;SDS011;52070;53.760;9.678;2023-03-09T10:16:11;11.40;;;4.95;;
65373;SDS011;52070;53.760;9.678;2023-03-09T10:18:42;9.30;;;4.78;;
65373;SDS011;52070;53.760;9.678;2023-03-09T10:21:13;15.65;;;4.95;;
65373;SDS011;52070;53.760;9.678;2023-03-09T10:23:47;9.23;;;4.95;;
65373;SDS011;52070;53.760;9.678;2023-03-09T10:26:17;8.75;;;4.90;;
65373;SDS011;52070;53.760;9.678;2023-03-09T10:28:51;11.93;;;5.00;;
65373;SDS011;52070;53.760;9.678;2023-03-09T10:31:22;7.35;;;4.30;;
65373;SDS011;52070;53.760;9.678;2023-03-09T10:33:57;8.68;;;4.43;;
65373;SDS011;52070;53.760;9.678;2023-03-09T10:36:30;8.40;;;4.22;;
65373;SDS011;52070;53.760;9.678;2023-03-09T10:39:00;8.43;;;4.47;;
65373;SDS011;52070;53.760;9.678;2023-03-09T10:41:29;7.57;;;4.80;;
65373;SDS011;52070;53.760;9.678;2023-03-09T10:43:56;8.52;;;4.60;;
65373;SDS011;52070;53.760;9.678;2023-03-09T10:46:25;10.55;;;5.57;;
65373;SDS011;52070;53.760;9.678;2023-03-09T10:49:08;6.57;;;4.50;;
65373;SDS011;52070;53.760;9.678;2023-03-09T10:51:38;8.27;;;4.90;;
65373;SDS011;52070;53.760;9.678;2023-03-09T10:54:18;9.73;;;4.95;;
65373;SDS011;52070;53.760;9.678;2023-03-09T10:56:48;6.43;;;4.22;;
65373;SDS011;52070;53.760;9.678;2023-03-09T10:59:18;8.20;;;4.50;;
65373;SDS011;52070;53.760;9.678;2023-03-09T11:01:47;8.52;;;4.35;;
65373;SDS011;52070;53.760;9.678;2023-03-09T11:04:29;9.65;;;5.40;;
65373;SDS011;52070;53.760;9.678;2023-03-09T11:07:00;10.90;;;4.43;;
65373;SDS011;52070;53.760;9.678;2023-03-09T11:09:32;9.88;;;4.60;;
65373;SDS011;52070;53.760;9.678;2023-03-09T11:12:14;15.20;;;5.72;;
65373;SDS011;52070;53.760;9.678;2023-03-09T11:14:44;12.70;;;4.53;;
65373;SDS011;52070;53.760;9.678;2023-03-09T11:17:26;7.45;;;4.50;;
65373;SDS011;52070;53.760;9.678;2023-03-09T11:22:46;8.93;;;4.80;;
65373;SDS011;52070;53.760;9.678;2023-03-09T11:25:19;7.53;;;4.60;;
65373;SDS011;52070;53.760;9.678;2023-03-09T11:27:51;7.10;;;4.28;;
65373;SDS011;52070;53.760;9.678;2023-03-09T11:30:25;9.80;;;4.90;;
65373;SDS011;52070;53.760;9.678;2023-03-09T11:32:55;7.72;;;4.03;;
65373;SDS011;52070;53.760;9.678;2023-03-09T11:35:22;9.43;;;4.25;;
65373;SDS011;52070;53.760;9.678;2023-03-09T11:37:51;7.07;;;4.20;;
65373;SDS011;52070;53.760;9.678;2023-03-09T11:40:23;7.60;;;4.28;;
65373;SDS011;52070;53.760;9.678;2023-03-09T11:42:55;7.55;;;4.28;;
65373;SDS011;52070;53.760;9.678;2023-03-09T11:45:26;6.72;;;3.95;;
65373;SDS011;52070;53.760;9.678;2023-03-09T11:47:56;7.15;;;3.95;;
65373;SDS011;52070;53.760;9.678;2023-03-09T11:50:27;8.68;;;4.55;;
65373;SDS011;52070;53.760;9.678;2023-03-09T11:52:57;7.60;;;4.57;;
65373;SDS011;52070;53.760;9.678;2023-03-09T11:55:29;7.47;;;4.32;;
65373;SDS011;52070;53.760;9.678;2023-03-09T11:58:02;7.28;;;4.85;;
65373;SDS011;52070;53.760;9.678;2023-03-09T12:00:32;8.00;;;4.55;;
65373;SDS011;52070;53.760;9.678;2023-03-09T12:03:01;9.90;;;4.53;;
65373;SDS011;52070;53.760;9.678;2023-03-09T12:05:37;8.13;;;4.90;;
65373;SDS011;52070;53.760;9.678;2023-03-09T12:08:10;6.88;;;4.18;;
65373;SDS011;52070;53.760;9.678;2023-03-09T12:10:43;6.03;;;4.03;;
65373;SDS011;52070;53.760;9.678;2023-03-09T12:13:17;10.05;;;4.00;;
65373;SDS011;52070;53.760;9.678;2023-03-09T12:15:50;10.52;;;4.55;;
65373;SDS011;52070;53.760;9.678;2023-03-09T12:18:22;9.70;;;4.40;;
65373;SDS011;52070;53.760;9.678;2023-03-09T12:20:52;11.40;;;4.63;;
65373;SDS011;52070;53.760;9.678;2023-03-09T12:26:20;19.92;;;5.25;;
65373;SDS011;52070;53.760;9.678;2023-03-09T12:28:56;8.80;;;4.30;;
65373;SDS011;52070;53.760;9.678;2023-03-09T12:31:32;7.68;;;4.50;;
65373;SDS011;52070;53.760;9.678;2023-03-09T12:34:02;5.57;;;4.10;;
65373;SDS011;52070;53.760;9.678;2023-03-09T12:36:32;7.60;;;4.55;;
65373;SDS011;52070;53.760;9.678;2023-03-09T12:42:29;6.70;;;3.95;;
65373;SDS011;52070;53.760;9.678;2023-03-09T12:45:12;6.63;;;4.00;;
65373;SDS011;52070;53.760;9.678;2023-03-09T12:47:50;8.50;;;4.10;;
65373;SDS011;52070;53.760;9.678;2023-03-09T12:50:22;6.57;;;3.92;;
65373;SDS011;52070;53.760;9.678;2023-03-09T12:52:55;7.13;;;3.92;;
65373;SDS011;52070;53.760;9.678;2023-03-09T12:55:41;7.38;;;4.10;;
65373;SDS011;52070;53.760;9.678;2023-03-09T13:01:11;6.57;;;3.88;;
65373;SDS011;52070;53.760;9.678;2023-03-09T13:03:54;8.00;;;4.00;;
65373;SDS011;52070;53.760;9.678;2023-03-09T13:06:37;5.43;;;3.72;;
65373;SDS011;52070;53.760;9.678;2023-03-09T13:09:13;7.00;;;4.07;;
65373;SDS011;52070;53.760;9.678;2023-03-09T13:11:45;6.78;;;3.83;;
65373;SDS011;52070;53.760;9.678;2023-03-09T13:14:14;9.75;;;3.70;;
65373;SDS011;52070;53.760;9.678;2023-03-09T13:17:06;6.68;;;3.88;;
65373;SDS011;52070;53.760;9.678;2023-03-09T13:20:16;7.03;;;3.83;;
65373;SDS011;52070;53.760;9.678;2023-03-09T13:22:50;6.68;;;3.55;;
65373;SDS011;52070;53.760;9.678;2023-03-09T13:28:04;7.95;;;3.60;;
65373;SDS011;52070;53.760;9.678;2023-03-09T13:30:38;7.45;;;3.45;;
65373;SDS011;52070;53.760;9.678;2023-03-09T13:33:13;5.85;;;3.53;;
65373;SDS011;52070;53.760;9.678;2023-03-09T13:35:47;5.57;;;3.55;;
65373;SDS011;52070;53.760;9.678;2023-03-09T13:38:19;4.80;;;3.20;;
65373;SDS011;52070;53.760;9.678;2023-03-09T13:40:49;7.97;;;3.90;;
65373;SDS011;52070;53.760;9.678;2023-03-09T13:43:19;5.50;;;3.30;;
65373;SDS011;52070;53.760;9.678;2023-03-09T13:45:54;4.53;;;3.38;;
65373;SDS011;52070;53.760;9.678;2023-03-09T13:48:25;6.10;;;3.75;;
65373;SDS011;52070;53.760;9.678;2023-03-09T13:50:53;7.20;;;3.22;;
65373;SDS011;52070;53.760;9.678;2023-03-09T13:53:21;5.43;;;3.13;;
65373;SDS011;52070;53.760;9.678;2023-03-09T13:55:53;5.90;;;3.72;;
65373;SDS011;52070;53.760;9.678;2023-03-09T13:58:21;5.28;;;3.47;;
65373;SDS011;52070;53.760;9.678;2023-03-09T14:00:51;7.75;;;3.75;;
65373;SDS011;52070;53.760;9.678;2023-03-09T14:03:20;6.05;;;3.47;;
65373;SDS011;52070;53.760;9.678;2023-03-09T14:05:56;8.18;;;3.75;;
65373;SDS011;52070;53.760;9.678;2023-03-09T14:08:25;6.03;;;3.30;;
65373;SDS011;52070;53.760;9.678;2023-03-09T14:10:55;3.80;;;2.92;;
65373;SDS011;52070;53.760;9.678;2023-03-09T14:13:23;9.65;;;3.50;;
65373;SDS011;52070;53.760;9.678;2023-03-09T14:15:58;4.93;;;3.10;;
65373;SDS011;52070;53.760;9.678;2023-03-09T14:18:32;7.22;;;3.25;;
65373;SDS011;52070;53.760;9.678;2023-03-09T14:21:04;4.43;;;3.10;;
65373;SDS011;52070;53.760;9.678;2023-03-09T14:23:43;6.45;;;2.90;;
65373;SDS011;52070;53.760;9.678;2023-03-09T14:26:11;3.97;;;3.05;;
65373;SDS011;52070;53.760;9.678;2023-03-09T14:28:39;4.53;;;3.40;;
65373;SDS011;52070;53.760;9.678;2023-03-09T14:31:10;7.40;;;3.33;;
65373;SDS011;52070;53.760;9.678;2023-03-09T14:33:53;8.88;;;3.42;;
65373;SDS011;52070;53.760;9.678;2023-03-09T14:36:23;4.63;;;3.40;;
65373;SDS011;52070;53.760;9.678;2023-03-09T14:38:51;7.57;;;3.60;;
65373;SDS011;52070;53.760;9.678;2023-03-09T14:41:21;6.50;;;3.75;;
65373;SDS011;52070;53.760;9.678;2023-03-09T14:43:50;6.05;;;3.38;;
65373;SDS011;52070;53.760;9.678;2023-03-09T14:46:18;5.57;;;3.65;;
65373;SDS011;52070;53.760;9.678;2023-03-09T14:48:46;5.88;;;3.47;;
65373;SDS011;52070;53.760;9.678;2023-03-09T14:51:16;7.88;;;3.60;;
65373;SDS011;52070;53.760;9.678;2023-03-09T14:53:53;6.20;;;3.47;;
65373;SDS011;52070;53.760;9.678;2023-03-09T14:56:23;8.38;;;3.58;;
65373;SDS011;52070;53.760;9.678;2023-03-09T14:58:50;8.93;;;4.20;;
65373;SDS011;52070;53.760;9.678;2023-03-09T15:01:18;5.18;;;3.65;;
65373;SDS011;52070;53.760;9.678;2023-03-09T15:03:47;6.22;;;3.80;;
65373;SDS011;52070;53.760;9.678;2023-03-09T15:06:15;6.80;;;3.50;;
65373;SDS011;52070;53.760;9.678;2023-03-09T15:08:42;6.53;;;4.13;;
65373;SDS011;52070;53.760;9.678;2023-03-09T15:11:11;6.85;;;3.97;;
65373;SDS011;52070;53.760;9.678;2023-03-09T15:13:38;5.57;;;3.60;;